ADDS METAR Data INFO
IDs: Format: Raw Decoded Include TAF

Data at: 0114 UTC 24 Jun 2018

KOXV 240055Z AUTO 00000KT 10SM CLR 23/17 A2979 RMK AO2
KOXV 240035Z AUTO 19004KT 10SM CLR 24/17 A2979 RMK AO2
KOXV 240015Z AUTO 19004KT 10SM CLR 24/17 A2979 RMK AO2
KOXV 232355Z AUTO 21007KT 10SM SCT033 SCT039 SCT055 24/17 A2978 RMK AO2
KOXV 232335Z AUTO 18006KT 10SM SCT034 SCT048 24/17 A2978 RMK AO2
KOXV 232315Z AUTO 15005KT 10SM SCT036 25/17 A2977 RMK AO2
KOXV 232255Z AUTO VRB04KT 10SM SCT035 24/17 A2977 RMK AO2
KOXV 232235Z AUTO 16005KT 10SM CLR 25/17 A2978 RMK AO2
KOXV 232215Z AUTO 00000KT 10SM CLR 24/16 A2978 RMK AO2
KOXV 232155Z AUTO 17005KT 10SM CLR 24/16 A2978 RMK AO2
KOXV 232135Z AUTO 00000KT 10SM CLR 24/16 A2978 RMK AO2
KOXV 232115Z AUTO 10004KT 10SM FEW035 24/16 A2978 RMK AO2
KOXV 232055Z AUTO 12004KT 10SM BKN035 BKN041 24/16 A2978 RMK AO2
KOXV 232035Z AUTO 00000KT 10SM SCT039 24/16 A2979 RMK AO2
KOXV 232015Z AUTO 00000KT 10SM CLR 24/16 A2979 RMK AO2
KOXV 231955Z AUTO 00000KT 10SM FEW034 24/16 A2979 RMK AO2
KOXV 231935Z AUTO 00000KT 10SM BKN034 24/16 A2978 RMK AO2
KOXV 231915Z AUTO 00000KT 10SM BKN035 24/15 A2979 RMK AO2
KOXV 231855Z AUTO 00000KT 10SM SCT033 24/14 A2979 RMK AO2
KOXV 231835Z AUTO 06007KT 020V080 10SM FEW030 SCT039 SCT050 24/16 A2978 RMK AO2
KOXV 231815Z AUTO 00000KT 10SM BKN038 BKN044 BKN050 24/17 A2979 RMK AO2
KOXV 231755Z AUTO 00000KT 10SM FEW027 SCT031 BKN037 23/16 A2979 RMK AO2
KOXV 231735Z AUTO 03003KT 10SM SCT027 BKN039 BKN044 23/16 A2980 RMK AO2
KOXV 231715Z AUTO 00000KT 10SM SCT024 BKN085 23/16 A2980 RMK AO2
KOXV 231655Z AUTO 32004KT 10SM FEW022 FEW030 OVC085 22/17 A2980 RMK AO2
KOXV 231635Z AUTO 25004KT 10SM FEW021 BKN075 OVC085 22/16 A2981 RMK AO2
KOXV 231615Z AUTO VRB04KT SCT021 OVC080 22/17 A2981 RMK AO2
KOXV 231555Z AUTO 00000KT 10SM OVC080 22/16 A2981 RMK AO2
KOXV 231535Z AUTO 22005KT 10SM BKN085 21/17 A2980 RMK AO2
KOXV 231515Z AUTO 22004KT 10SM BKN022 21/16 A2980 RMK AO2
KOXV 231455Z AUTO 23005KT 10SM SCT018 BKN024 BKN080 20/17 A2979 RMK AO2
KOXV 231435Z AUTO 22003KT 10SM BKN080 21/17 A2979 RMK AO2
KOXV 231415Z AUTO VRB03KT 10SM BKN075 21/17 A2979 RMK AO2
KOXV 231355Z AUTO 00000KT 10SM SCT080 21/16 A2979 RMK AO2
KOXV 231335Z AUTO 00000KT 10SM SCT080 20/17 A2979 RMK AO2
KOXV 231315Z AUTO 00000KT 10SM CLR 20/17 A2979 RMK AO2
KOXV 231255Z AUTO 00000KT 10SM CLR 20/17 A2979 RMK AO2
KOXV 231235Z AUTO 00000KT 10SM CLR 20/18 A2978 RMK AO2
KOXV 231215Z AUTO 00000KT 10SM CLR 19/17 A2977 RMK AO2
KOXV 231155Z AUTO 00000KT 9SM CLR 18/17 A2977 RMK AO2
KOXV 231135Z AUTO 05004KT 9SM CLR 18/17 A2976 RMK AO2
KOXV 231115Z AUTO 00000KT 6SM BR FEW050 17/17 A2977 RMK AO2
KOXV 231055Z AUTO 00000KT 10SM BKN050 18/17 A2977 RMK AO2
KOXV 231035Z AUTO 00000KT 10SM OVC049 18/17 A2977 RMK AO2
KOXV 231015Z AUTO 00000KT 10SM BKN049 OVC080 18/17 A2977 RMK AO2
KOXV 230955Z AUTO 00000KT 9SM SCT035 BKN048 OVC080 18/17 A2978 RMK AO2
KOXV 230935Z AUTO 28004KT 8SM OVC034 18/17 A2978 RMK AO2
KOXV 230915Z AUTO 27003KT 7SM OVC034 18/17 A2978 RMK AO2
KOXV 230855Z AUTO 00000KT 9SM BKN036 OVC080 18/17 A2978 RMK AO2
KOXV 230835Z AUTO 00000KT 10SM BKN036 OVC080 18/17 A2977 RMK AO2
KOXV 230815Z AUTO 00000KT 10SM OVC080 18/16 A2977 RMK AO2
KOXV 230755Z AUTO 00000KT 10SM OVC080 18/16 A2977 RMK AO2
KOXV 230735Z AUTO 00000KT 10SM FEW055 OVC080 18/17 A2977 RMK AO2
KOXV 230715Z AUTO 02004KT 9SM BKN055 OVC085 18/17 A2978 RMK AO2
KOXV 230655Z AUTO 32003KT 9SM BKN055 18/17 A2979 RMK AO2
KOXV 230635Z AUTO 32003KT 10SM FEW055 18/17 A2980 RMK AO2
KOXV 230615Z AUTO 33004KT 10SM CLR 18/17 A2980 RMK AO2
KOXV 230555Z AUTO 00000KT 10SM FEW060 SCT075 SCT085 19/17 A2980 RMK AO2
KOXV 230535Z AUTO 32003KT 10SM BKN060 OVC075 19/17 A2980 RMK AO2
KOXV 230515Z AUTO 27006KT 10SM SCT040 BKN047 OVC075 19/17 A2982 RMK AO2
KOXV 230455Z AUTO 00000KT 10SM OVC042 20/17 A2980 RMK AO2
KOXV 230435Z AUTO 00000KT 10SM BKN036 OVC044 20/17 A2978 RMK AO2
KOXV 230415Z AUTO 05004KT 10SM BKN032 BKN040 OVC046 20/17 A2977 RMK AO2
KOXV 230355Z AUTO 00000KT 10SM FEW033 BKN040 OVC049 19/17 A2978 RMK AO2
KOXV 230335Z AUTO 00000KT 10SM BKN036 BKN043 OVC048 19/17 A2977 RMK AO2
KOXV 230315Z AUTO 32003KT 10SM FEW038 BKN048 OVC080 19/17 A2977 RMK AO2
KOXV 230255Z AUTO 30003KT 10SM SCT047 OVC080 19/17 A2977 RMK AO2
KOXV 230235Z AUTO 29004KT 10SM OVC075 19/17 A2977 RMK AO2
KOXV 230215Z AUTO 33004KT 8SM BKN070 BKN085 OVC260 20/17 A2977 RMK AO2
KOXV 230155Z AUTO 36004KT 10SM BKN070 BKN085 OVC270 20/16 A2976 RMK AO2
KOXV 230135Z AUTO 36004KT 9SM OVC065 20/17 A2977 RMK AO2
KOXV 230115Z AUTO 33004KT 10SM OVC065 21/17 A2977 RMK AO2
KOXV 230055Z AUTO 33005KT 9SM OVC055 21/16 A2977 RMK AO2
KOXV 230035Z AUTO 35006KT 10SM OVC055 21/16 A2977 RMK AO2
KOXV 230015Z AUTO VRB05KT 10SM SCT050 OVC060 21/16 A2978 RMK AO2
KOXV 222355Z AUTO 02007KT 10SM BKN050 OVC060 21/15 A2977 RMK AO2
KOXV 222335Z AUTO 02007KT 10SM SCT041 OVC055 22/15 A2978 RMK AO2
KOXV 222315Z AUTO 01005KT 10SM BKN041 OVC050 21/16 A2978 RMK AO2
KOXV 222255Z AUTO 01006KT 10SM BKN043 OVC050 21/16 A2978 RMK AO2
KOXV 222235Z AUTO 01005KT 10SM OVC040 21/16 A2979 RMK AO2
KOXV 222215Z AUTO 36006KT 10SM OVC040 21/15 A2980 RMK AO2
KOXV 222155Z AUTO 01007G12KT 10SM OVC039 22/16 A2980 RMK AO2
KOXV 222135Z AUTO 03008KT 360V060 10SM OVC042 22/16 A2980 RMK AO2
KOXV 222115Z AUTO 01009KT 10SM OVC040 22/15 A2979 RMK AO2
KOXV 222055Z AUTO 02008KT 10SM OVC035 22/15 A2980 RMK AO2
KOXV 222035Z AUTO 01006KT 10SM OVC032 21/15 A2981 RMK AO2
KOXV 222015Z AUTO 05004KT 10SM OVC030 21/15 A2981 RMK AO2
KOXV 221955Z AUTO 05010KT 10SM OVC033 22/15 A2981 RMK AO2
KOXV 221935Z AUTO 05006G13KT 10SM OVC035 22/15 A2981 RMK AO2
KOXV 221915Z AUTO 05006KT 10SM FEW029 OVC039 22/16 A2982 RMK AO2
KOXV 221855Z AUTO 04005KT 10SM FEW030 OVC039 21/16 A2982 RMK AO2
KOXV 221835Z AUTO 01007KT 10SM BKN031 OVC038 21/16 A2982 RMK AO2
KOXV 221815Z AUTO 36006G12KT 10SM BKN032 BKN039 OVC044 21/16 A2982 RMK AO2
KOXV 221755Z AUTO 02009KT 10SM BKN034 OVC040 21/15 A2982 RMK AO2
KOXV 221735Z AUTO 36010KT 10SM SCT028 BKN032 OVC070 22/16 A2982 RMK AO2
KOXV 221715Z AUTO 01009KT 340V040 10SM SCT027 SCT034 OVC065 22/15 A2982 RMK AO2
KOXV 221655Z AUTO 03010G16KT 10SM BKN065 22/16 A2982 RMK AO2
KOXV 221635Z AUTO 03009KT 10SM SCT037 SCT050 BKN060 21/15 A2982 RMK AO2
KOXV 221615Z AUTO 02010KT 10SM SCT024 OVC035 20/15 A2983 RMK AO2
KOXV 221555Z AUTO 36005KT 10SM BKN024 OVC030 20/16 A2983 RMK AO2
KOXV 221535Z AUTO 02010KT 10SM SCT023 BKN030 OVC046 20/16 A2982 RMK AO2
KOXV 221515Z AUTO 36007KT 10SM SCT018 BKN024 OVC036 19/16 A2982 RMK AO2
KOXV 221455Z AUTO 36008KT 10SM OVC017 18/16 A2982 RMK AO2 P0001
KOXV 221435Z AUTO 02008KT 10SM BKN015 OVC023 18/16 A2982 RMK AO2
KOXV 221415Z AUTO 01006KT 10SM BKN013 OVC036 18/16 A2982 RMK AO2
KOXV 221355Z AUTO 02006KT 10SM OVC011 18/16 A2982 RMK AO2
KOXV 221335Z AUTO 02007G12KT 10SM OVC010 17/16 A2982 RMK AO2
KOXV 221315Z AUTO 01006G11KT 10SM OVC009 17/16 A2982 RMK AO2